AirNav   Air Wisconsin Up To $57,000 Bonus
 
 1258 users online  

63PN Helicopter Services Heliport
Coopersburg, Pennsylvania, USA

GOING TO COOPERSBURG?


FAA INFORMATION EFFECTIVE 07 NOVEMBER 2019

Location

FAA Identifier: 63PN
Lat/Long: 40-30-30.3580N 075-23-38.6490W
40-30.505967N 075-23.644150W
40.5084328,-75.3940692
(estimated)
Elevation: 620 ft. / 189 m (estimated)
Variation: 11W (1985)
From city: 1 mile S of COOPERSBURG, PA
Time zone: UTC -5 (UTC -4 during Daylight Saving Time)
Zip code: 18036

Heliport Operations

Heliport use: Private use. Permission required prior to landing
Control tower: no
ARTCC: NEW YORK CENTER
FSS: WILLIAMSPORT FLIGHT SERVICE STATION
Attendance: MON-FRI 0700-1800
Wind indicator: lighted
Segmented circle: no
Lights: SS-SR

Heliport Communications

UNICOM: 123.05
WX AWOS-3 at UKT (4 nm S): 119.475 (215-538-7610)
WX AWOS-3 at XLL (6 nm NW): 127.875 (610-231-3111)
WX AWOS-3 at CKZ (9 nm SE): 126.325 (215-257-7291)
WX ASOS at ABE (9 nm N): PHONE 610-266-3579
WX ASOS at DYL (16 nm SE): 118.875 (215-345-0392)
WX ASOS at PTW (18 nm SW): 119.425 (610-495-0823)
  • MULTICOM 123.05.

Nearby radio navigation aids

VOR radial/distance  VOR name  Freq  Var
FJCr178/13.4ALLENTOWN VORTAC117.5010W
ETXr117/13.9EAST TEXAS VOR/DME110.2009W
PTWr033/18.8POTTSTOWN VORTAC116.5009W
ARDr315/27.0YARDLEY VOR/DME108.2010W
SBJr271/30.1SOLBERG VOR/DME112.9010W
BWZr247/31.3BROADWAY VOR/DME114.2011W
MXEr029/37.6MODENA VORTAC113.2009W
STWr230/37.7STILLWATER VOR/DME109.6011W

 
NDB name  Hdg/Dist  Freq  Var  ID
AMBLER360/23.527512WING .. -. --.

Heliport Services

Fuel available: A

Runway Information

Helipad H1

Dimensions: 50 x 50 ft. / 15 x 15 m
Surface: concrete, in fair condition
Latitude: 40-30.505967N
Longitude: 075-23.644150W
Elevation: 620.0 ft.
Traffic pattern: leftleft
Markings: none, in fair condition

Heliport Ownership and Management from official FAA records

Ownership: Privately-owned
Owner: FLEET SALES & LEASING
RT 309 & HILLTOP RD
COOPERSBURG, PA 18036
Phone 215-282-4100
Manager: WILLIAM H. THAYER
RT 309 & HILLTOP RD
COOPERSBURG, PA 18036
Phone 215-282-4100

Heliport Operational Statistics

Aircraft based on the field: 8
Helicopters: 8
    

Additional Remarks

HELICOPTER MAINTENANCE AVAILABLE.
FOR CD CTC ALLENTOWN APCH AT 800-728-6322.

Instrument Procedures

There are no published instrument procedures at 63PN.

Some nearby airports with instrument procedures:

KUKT - Quakertown Airport (4 nm S)
KXLL - Allentown Queen City Municipal Airport (6 nm NW)
KCKZ - Pennridge Airport (9 nm SE)
KABE - Lehigh Valley International Airport (9 nm N)
N43 - Braden Airpark (16 nm NE)
KDYL - Doylestown Airport (16 nm SE)
N85 - Alexandria Airport (18 nm E)
KPTW - Heritage Field Airport (18 nm SW)
N10 - Perkiomen Valley Airport (18 nm S)
N40 - Sky Manor Airport (19 nm E)
 
Loc | Ops | Rwys | IFR | FBO | Links
Com | Nav | Svcs | Stats | Notes
Area around 63PN (Helicopter Services Heliport)
 
Road maps at: MapQuest Bing Google
 
Aerial photo
No photo
 
Sectional chart

 
Airport distance calculator
Flying to Helicopter Services Heliport? Find the distance to fly.

From to 63PN

Sunrise and sunset
Times for 21-Nov-2019
 Local
(UTC-5)
 Zulu
(UTC)
Morning civil twilight06:2611:26
Sunrise06:5611:56
Sunset16:3921:39
Evening civil twilight17:0922:09

Current date and time
Zulu (UTC)  21-Nov-2019 14:52:43
Local (UTC-5)  21-Nov-2019 09:52:43
 
METAR
KUKT 
4nm S 
211440Z AUTO VRB04KT 10SM CLR 08/01 A3022 RMK A01
KXLL 
6nm NW 
211435Z AUTO 34007KT 10SM CLR 08/01 A3023 RMK AO2
KCKZ 
9nm SE 
211435Z AUTO 01006KT 10SM CLR 08/00 A3022 RMK AO2
KABE 
9nm N 
211351Z 34006KT 10SM CLR 08/00 A3021 RMK AO2 SLP231 T00830000
KDYL 
16nm SE 
211354Z AUTO 00000KT 10SM CLR 08/00 A3021 RMK AO2 SLP234 T00780000
KPTW 
18nm SW 
211354Z AUTO 30006KT 7SM CLR 06/M01 A3024 RMK AO2 SLP238 T00561006
TAF
KABE 
9nm N 
211120Z 2112/2212 31005KT P6SM SCT040 FM211800 26006KT P6SM SCT200 FM212200 20005KT P6SM BKN200 FM220800 21004KT P6SM OVC050
NOTAMs
Click for the latest NOTAMs
NOTAMs are issued by the DoD/FAA and will open in a separate window not controlled by AirNav.

 

 
 

Would you like to see your business listed on this page?

 If your business provides an interesting product or service to pilots, flight crews, aircraft, or users of the Helicopter Services Heliport, you should consider listing it here.  To start the listing process, click on the button below
 
Add a business
 

Other Pages about Helicopter Services Heliport

Update a link
 
Copyright © AirNav, LLC. All rights reserved. Privacy Policy  Contact